createdAt,value
2022-10-06T00:00:08.377Z,17.67
2022-10-06T00:05:11.621Z,15.63
2022-10-06T00:10:16.268Z,14.10
2022-10-06T00:15:22.207Z,18.73
2022-10-06T00:20:26.683Z,18.40
2022-10-06T00:25:31.353Z,17.37
2022-10-06T00:30:34.636Z,15.90
2022-10-06T00:35:38.234Z,20.17
2022-10-06T00:40:47.507Z,20.85
2022-10-06T00:45:51.001Z,23.30
2022-10-06T00:50:57.563Z,23.95
2022-10-06T00:56:02.259Z,29.53
2022-10-06T01:01:05.801Z,24.15
2022-10-06T01:06:09.578Z,23.80
2022-10-06T01:11:15.262Z,26.20
2022-10-06T01:16:22.655Z,32.55
2022-10-06T01:21:33.664Z,28.75
2022-10-06T01:26:43.268Z,25.80
2022-10-06T01:31:46.765Z,18.58
2022-10-06T01:36:51.245Z,20.58
2022-10-06T01:41:56.358Z,18.73
2022-10-06T01:46:59.740Z,18.02
2022-10-06T01:52:03.742Z,18.80
2022-10-06T01:57:09.597Z,18.42
2022-10-06T02:02:14.285Z,21.90
2022-10-06T02:07:17.732Z,26.55
2022-10-06T02:12:24.482Z,15.77
2022-10-06T02:17:27.983Z,13.38
2022-10-06T02:22:31.377Z,11.97
2022-10-06T02:27:36.084Z,13.93
2022-10-06T02:32:42.600Z,10.25
2022-10-06T02:37:46.817Z,13.85
2022-10-06T02:42:55.247Z,14.25
2022-10-06T02:47:59.456Z,15.88
2022-10-06T02:53:08.705Z,17.45
2022-10-06T02:58:13.522Z,13.65
2022-10-06T03:03:16.921Z,15.23
2022-10-06T03:08:20.265Z,16.92
2022-10-06T03:13:25.003Z,10.77
2022-10-06T04:34:39.465Z,26.52
2022-10-06T04:39:43.046Z,21.45
2022-10-06T04:44:48.434Z,17.30
2022-10-06T04:49:51.987Z,15.20
2022-10-06T04:54:55.611Z,22.55
2022-10-06T05:00:17.830Z,14.00
2022-10-06T05:05:23.242Z,16.77
2022-10-06T05:10:28.532Z,11.13
2022-10-06T05:15:34.309Z,15.67
2022-10-06T05:20:38.060Z,28.60
2022-10-06T05:25:41.388Z,31.90
2022-10-06T05:30:56.570Z,35.15
2022-10-06T05:36:01.195Z,36.00
2022-10-06T05:41:07.734Z,17.30
2022-10-06T05:46:17.681Z,18.23
2022-10-06T05:51:25.567Z,18.35
2022-10-06T05:56:33.094Z,14.88
2022-10-06T06:01:40.975Z,7.05
2022-10-06T06:06:52.092Z,8.82
2022-10-06T06:12:03.126Z,7.72
2022-10-06T06:17:14.309Z,7.87
2022-10-06T06:22:17.834Z,6.63
2022-10-06T06:27:23.430Z,8.32
2022-10-06T06:32:28.268Z,6.97
2022-10-06T06:37:33.534Z,6.60
2022-10-06T06:42:37.871Z,6.18
2022-10-06T06:48:02.409Z,6.00
2022-10-06T06:53:06.981Z,5.72
2022-10-06T06:58:13.205Z,5.32
2022-10-06T07:03:38.428Z,5.85
2022-10-06T07:08:45.288Z,3.43
2022-10-06T07:13:53.045Z,3.90
2022-10-06T07:19:15.509Z,3.80
2022-10-06T07:24:37.791Z,4.93
2022-10-06T07:29:41.324Z,3.80
2022-10-06T07:34:46.967Z,4.03
2022-10-06T07:39:50.429Z,4.20
2022-10-06T07:45:08.133Z,4.50
2022-10-06T07:50:16.131Z,4.60
2022-10-06T07:55:19.794Z,5.03
2022-10-06T08:00:46.645Z,5.32
2022-10-06T08:05:59.869Z,5.50
2022-10-06T08:11:03.270Z,5.13
2022-10-06T08:16:07.543Z,5.90
2022-10-06T08:21:14.957Z,4.97
2022-10-06T08:26:19.988Z,5.80
2022-10-06T08:31:24.642Z,5.20
2022-10-06T08:36:31.929Z,5.50
2022-10-06T08:41:43.194Z,5.43
2022-10-06T08:46:51.841Z,4.10
2022-10-06T08:52:05.776Z,5.80
2022-10-06T08:57:15.574Z,6.80
2022-10-06T09:02:29.143Z,4.57
2022-10-06T09:07:43.996Z,4.13
2022-10-06T09:12:52.061Z,3.90
2022-10-06T09:18:00.341Z,4.45
2022-10-06T09:23:07.981Z,5.40
2022-10-06T09:28:15.890Z,6.07
2022-10-06T09:33:24.970Z,3.63
2022-10-06T09:38:48.404Z,3.63
2022-10-06T09:43:58.353Z,3.85
2022-10-06T09:49:19.575Z,5.13
2022-10-06T09:54:24.545Z,3.53
2022-10-06T09:59:39.165Z,6.72
2022-10-06T10:04:47.303Z,5.88
2022-10-06T10:10:11.176Z,4.60
2022-10-06T10:15:27.360Z,4.63
2022-10-06T10:20:35.257Z,3.63
2022-10-06T10:25:56.235Z,3.77
2022-10-06T10:31:06.166Z,5.63
2022-10-06T10:36:13.952Z,4.10
2022-10-06T10:41:23.687Z,4.55
2022-10-06T10:46:33.454Z,3.33
2022-10-06T10:51:42.464Z,4.30
2022-10-06T10:56:49.259Z,4.30
2022-10-06T11:01:57.840Z,3.60
2022-10-06T11:07:11.554Z,6.40
2022-10-06T11:12:29.438Z,4.50
2022-10-06T11:17:44.486Z,5.00
2022-10-06T11:22:54.877Z,5.68
2022-10-06T11:28:08.528Z,5.07
2022-10-06T11:33:18.630Z,3.97
2022-10-06T11:38:28.341Z,4.80
2022-10-06T11:43:42.846Z,2.97
2022-10-06T11:48:46.864Z,1.80
2022-10-06T11:53:50.337Z,2.63
2022-10-06T11:59:25.678Z,3.00
2022-10-06T12:04:29.751Z,2.45
2022-10-06T12:09:54.018Z,1.30
2022-10-06T12:16:58.207Z,2.78
2022-10-06T12:20:43.022Z,3.78
2022-10-06T12:25:52.299Z,2.22
2022-10-06T12:31:21.977Z,1.98
2022-10-06T12:36:28.378Z,1.90
2022-10-06T12:42:00.231Z,2.05
2022-10-06T12:47:11.503Z,1.42
2022-10-06T12:52:33.469Z,1.67
2022-10-06T12:57:47.903Z,1.92
2022-10-06T13:02:55.467Z,2.13
2022-10-06T13:08:00.685Z,2.20
2022-10-06T13:13:04.028Z,1.52
2022-10-06T13:18:16.018Z,1.92
2022-10-06T13:23:28.337Z,1.20
2022-10-06T13:28:47.098Z,1.83
2022-10-06T13:33:55.241Z,1.23
2022-10-06T13:38:58.842Z,2.67
2022-10-06T13:44:05.759Z,1.85
2022-10-06T13:49:20.297Z,3.05
2022-10-06T13:54:29.590Z,1.53
2022-10-06T13:59:38.573Z,0.85
2022-10-06T14:04:43.330Z,1.85
2022-10-06T14:09:51.518Z,1.48
2022-10-06T14:14:54.902Z,1.77
2022-10-06T14:19:59.827Z,2.10
2022-10-06T14:25:11.623Z,2.17
2022-10-06T14:30:15.141Z,2.38
2022-10-06T14:35:19.960Z,1.48
2022-10-06T14:40:23.266Z,1.23
2022-10-06T14:45:26.503Z,1.42
2022-10-06T14:50:31.286Z,1.70
2022-10-06T14:55:39.230Z,2.20
2022-10-06T15:00:44.737Z,1.98
2022-10-06T15:06:07.705Z,2.45
2022-10-06T15:11:14.976Z,1.07
2022-10-06T15:16:20.235Z,0.80
2022-10-06T15:21:27.004Z,1.48
2022-10-06T15:26:49.336Z,2.33
2022-10-06T15:31:55.325Z,1.90
2022-10-06T15:37:01.967Z,2.07
2022-10-06T15:42:07.164Z,1.00
2022-10-06T15:47:12.411Z,1.38
2022-10-06T15:52:19.092Z,2.40
2022-10-06T15:57:25.880Z,2.55
2022-10-06T16:02:35.738Z,3.70
2022-10-06T16:07:41.928Z,2.60
2022-10-06T16:12:46.670Z,1.30
2022-10-06T16:17:50.968Z,1.75
2022-10-06T16:22:56.138Z,2.78
2022-10-06T16:27:59.952Z,1.60
2022-10-06T16:33:03.255Z,2.20
2022-10-06T16:38:07.973Z,3.33
2022-10-06T16:43:11.258Z,4.13
2022-10-06T16:48:14.526Z,3.33
2022-10-06T16:53:20.838Z,3.42
2022-10-06T16:58:24.243Z,7.38
2022-10-06T17:03:27.568Z,10.13
2022-10-06T17:08:32.330Z,16.37
2022-10-06T17:13:36.989Z,21.70
2022-10-06T17:18:40.835Z,17.17
2022-10-06T17:23:46.158Z,18.48
2022-10-06T17:28:50.922Z,16.40
2022-10-06T17:33:54.469Z,14.37
2022-10-06T17:39:02.880Z,9.65
2022-10-06T17:44:09.169Z,10.13
2022-10-06T17:49:15.462Z,12.87
2022-10-06T17:54:22.051Z,21.85
2022-10-06T17:59:28.601Z,22.97
2022-10-06T18:04:31.998Z,10.32
2022-10-06T18:09:36.691Z,6.73
2022-10-06T18:14:39.971Z,7.95
2022-10-06T18:19:44.440Z,10.15
2022-10-06T18:24:50.474Z,7.82
2022-10-06T18:29:53.841Z,7.93
2022-10-06T18:40:24.337Z,9.73
2022-10-06T18:45:45.264Z,9.45
2022-10-06T18:51:01.135Z,11.35
2022-10-06T18:56:07.019Z,12.80
2022-10-06T19:01:11.279Z,13.03
2022-10-06T19:06:14.669Z,29.13
2022-10-06T19:11:36.894Z,16.03
2022-10-06T19:16:40.379Z,16.67
2022-10-06T19:21:45.841Z,13.93
2022-10-06T19:26:52.519Z,10.80
2022-10-06T19:32:00.355Z,8.27
2022-10-06T19:37:04.816Z,9.30
2022-10-06T19:42:29.282Z,7.43
2022-10-06T19:47:32.889Z,4.67
2022-10-06T19:52:37.636Z,5.72
2022-10-06T19:57:43.143Z,4.57
2022-10-06T20:02:48.074Z,5.53
2022-10-06T20:07:53.305Z,5.75
2022-10-06T20:13:01.035Z,7.18
2022-10-06T20:18:05.681Z,10.17
2022-10-06T20:23:09.054Z,6.57
2022-10-06T20:28:15.097Z,6.63
2022-10-06T20:33:20.042Z,6.20
2022-10-06T20:38:43.703Z,3.80
2022-10-06T20:43:49.114Z,5.07
2022-10-06T20:48:52.682Z,4.60
2022-10-06T20:53:55.941Z,7.18
2022-10-06T20:59:01.210Z,4.28
2022-10-06T21:04:04.914Z,4.63
2022-10-06T21:09:11.010Z,6.43
2022-10-06T21:14:16.729Z,4.90
2022-10-06T21:19:21.286Z,5.20
2022-10-06T21:24:24.751Z,4.75
2022-10-06T21:29:29.561Z,4.75
2022-10-06T21:34:33.332Z,6.15
2022-10-06T21:39:36.712Z,5.90
2022-10-06T21:44:41.898Z,4.30
2022-10-06T21:49:45.412Z,6.07
2022-10-06T21:54:48.816Z,6.68
2022-10-06T21:59:53.577Z,5.40
2022-10-06T22:04:56.967Z,5.53
2022-10-06T22:10:00.371Z,5.40
2022-10-06T22:15:05.535Z,5.50
2022-10-06T22:20:09.931Z,5.70
2022-10-06T22:25:13.328Z,4.88
2022-10-06T22:30:18.196Z,6.53
2022-10-06T22:35:21.600Z,8.10
2022-10-06T22:40:24.993Z,7.38
2022-10-06T22:45:29.760Z,7.45
2022-10-06T22:55:36.582Z,11.35
2022-10-06T23:00:42.741Z,7.20
2022-10-06T23:05:55.733Z,8.53
2022-10-06T23:11:05.643Z,6.63
2022-10-06T23:16:14.035Z,7.23
2022-10-06T23:21:22.123Z,8.97
2022-10-06T23:26:28.082Z,6.57
2022-10-06T23:31:33.621Z,8.88
2022-10-06T23:36:39.411Z,6.72
2022-10-06T23:41:43.251Z,10.15
2022-10-06T23:46:48.045Z,11.02
2022-10-06T23:51:51.512Z,6.07
2022-10-06T23:56:56.017Z,7.60
